Time,TemperatureF,DewpointF,PressureIn,WindDirection,WindDirectionDegrees,WindSpeedMPH,WindSpeedGustMPH,Humidity,HourlyPrecipIn,Conditions,Clouds,dailyrainin,SolarRadiationWatts/m^2,SoftwareType,DateUTC
2013-05-17 00:14:00,68.0,35.0,-100.00,ENE,58,12.0,19.0,29,0.00,,,0.00,1.000000,,2013-05-17 05:14:00,
2013-05-17 00:22:00,68.0,35.0,-100.00,ENE,58,12.0,19.0,29,0.00,,,0.00,1.000000,,2013-05-17 05:22:00,
2013-05-17 00:32:00,68.0,35.0,-100.00,ENE,58,12.0,19.0,29,0.00,,,0.00,1.000000,,2013-05-17 05:32:00,
2013-05-17 00:42:00,68.0,35.0,-100.00,ENE,58,12.0,19.0,29,0.00,,,0.00,1.000000,,2013-05-17 05:42:00,
2013-05-17 01:11:00,65.0,34.0,-100.00,NE,50,6.0,16.0,31,0.00,,,0.00,1.000000,,2013-05-17 06:11:00,
2013-05-17 01:21:00,65.0,34.0,-100.00,NE,50,6.0,16.0,31,0.00,,,0.00,1.000000,,2013-05-17 06:21:00,
2013-05-17 01:32:00,65.0,34.0,-100.00,NE,50,6.0,16.0,31,0.00,,,0.00,1.000000,,2013-05-17 06:32:00,
2013-05-17 01:42:00,65.0,34.0,-100.00,NE,50,6.0,16.0,31,0.00,,,0.00,1.000000,,2013-05-17 06:42:00,
2013-05-17 02:11:00,62.0,40.0,-100.00,NE,51,6.0,11.0,44,0.00,,,0.00,1.000000,,2013-05-17 07:11:00,
2013-05-17 02:21:00,62.0,40.0,-100.00,NE,51,6.0,11.0,44,0.00,,,0.00,1.000000,,2013-05-17 07:21:00,
2013-05-17 02:32:00,62.0,40.0,-100.00,NE,51,6.0,11.0,44,0.00,,,0.00,1.000000,,2013-05-17 07:32:00,
2013-05-17 02:43:00,62.0,40.0,-100.00,NE,51,6.0,11.0,44,0.00,,,0.00,1.000000,,2013-05-17 07:43:00,
2013-05-17 03:12:00,62.0,42.0,-100.00,ENE,66,7.0,11.0,47,0.00,,,0.00,1.000000,,2013-05-17 08:12:00,
2013-05-17 03:23:00,62.0,42.0,-100.00,ENE,66,7.0,11.0,47,0.00,,,0.00,1.000000,,2013-05-17 08:23:00,
2013-05-17 03:33:00,62.0,42.0,-100.00,ENE,66,7.0,11.0,47,0.00,,,0.00,1.000000,,2013-05-17 08:33:00,
2013-05-17 03:42:00,62.0,42.0,-100.00,ENE,66,7.0,11.0,47,0.00,,,0.00,1.000000,,2013-05-17 08:42:00,
2013-05-17 04:12:00,62.0,44.0,-100.00,East,99,6.0,13.0,51,0.00,,,0.00,1.000000,,2013-05-17 09:12:00,
2013-05-17 04:22:00,62.0,44.0,-100.00,East,99,6.0,13.0,51,0.00,,,0.00,1.000000,,2013-05-17 09:22:00,
2013-05-17 04:33:00,62.0,44.0,-100.00,East,99,6.0,13.0,51,0.00,,,0.00,1.000000,,2013-05-17 09:33:00,
2013-05-17 04:42:00,62.0,44.0,-100.00,East,99,6.0,13.0,51,0.00,,,0.00,1.000000,,2013-05-17 09:42:00,
2013-05-17 05:12:00,61.0,50.0,-100.00,ESE,119,8.0,16.0,67,0.00,,,0.00,1.000000,,2013-05-17 10:12:00,
2013-05-17 05:23:00,61.0,50.0,-100.00,ESE,119,8.0,16.0,67,0.00,,,0.00,1.000000,,2013-05-17 10:23:00,
2013-05-17 05:33:00,61.0,50.0,-100.00,ESE,119,8.0,16.0,67,0.00,,,0.00,1.000000,,2013-05-17 10:33:00,
2013-05-17 05:42:00,61.0,50.0,-100.00,ESE,119,8.0,16.0,67,0.00,,,0.00,1.000000,,2013-05-17 10:42:00,
2013-05-17 06:12:00,58.0,55.0,-100.00,ENE,66,8.0,17.0,90,0.00,,,0.00,1.000000,,2013-05-17 11:12:00,
2013-05-17 06:23:00,58.0,55.0,-100.00,ENE,66,8.0,17.0,90,0.00,,,0.00,1.000000,,2013-05-17 11:23:00,
2013-05-17 06:34:00,58.0,55.0,-100.00,ENE,66,8.0,17.0,90,0.00,,,0.00,1.000000,,2013-05-17 11:34:00,
2013-05-17 06:42:00,58.0,55.0,-100.00,ENE,66,8.0,17.0,90,0.00,,,0.00,1.000000,,2013-05-17 11:42:00,
2013-05-17 07:12:00,57.0,55.0,-100.00,East,86,8.0,13.0,93,0.01,,,0.01,4.000000,,2013-05-17 12:12:00,
2013-05-17 07:23:00,57.0,55.0,-100.00,East,86,8.0,13.0,93,0.01,,,0.01,4.000000,,2013-05-17 12:23:00,
2013-05-17 07:32:00,57.0,55.0,-100.00,East,86,8.0,13.0,93,0.01,,,0.01,4.000000,,2013-05-17 12:32:00,
2013-05-17 07:43:00,57.0,55.0,-100.00,East,86,8.0,13.0,93,0.01,,,0.01,4.000000,,2013-05-17 12:43:00,
2013-05-17 08:12:00,56.0,53.0,-100.00,East,92,7.0,13.0,90,0.00,,,-99.99,19.000000,,2013-05-17 13:12:00,
2013-05-17 08:23:00,56.0,53.0,-100.00,East,92,7.0,13.0,90,0.00,,,-99.99,19.000000,,2013-05-17 13:23:00,
2013-05-17 08:33:00,56.0,53.0,-100.00,East,92,7.0,13.0,90,0.00,,,-99.99,19.000000,,2013-05-17 13:33:00,
2013-05-17 08:42:00,56.0,53.0,-100.00,East,92,7.0,13.0,90,0.00,,,-99.99,19.000000,,2013-05-17 13:42:00,
2013-05-17 09:13:00,56.0,53.0,-100.00,East,90,10.0,14.0,89,0.00,,,0.01,100.000000,,2013-05-17 14:13:00,
2013-05-17 09:22:00,56.0,53.0,-100.00,East,90,10.0,14.0,89,0.00,,,0.01,100.000000,,2013-05-17 14:22:00,
2013-05-17 09:34:00,56.0,53.0,-100.00,East,90,10.0,14.0,89,0.00,,,0.01,100.000000,,2013-05-17 14:34:00,
2013-05-17 09:43:00,56.0,53.0,-100.00,East,90,10.0,14.0,89,0.00,,,0.01,100.000000,,2013-05-17 14:43:00,
2013-05-17 10:14:00,57.0,53.0,-100.00,East,99,6.0,15.0,88,0.00,,,0.01,112.000000,,2013-05-17 15:14:00,
2013-05-17 10:25:00,57.0,53.0,-100.00,East,99,6.0,15.0,88,0.00,,,0.01,112.000000,,2013-05-17 15:25:00,
2013-05-17 10:37:00,57.0,53.0,-100.00,East,99,6.0,15.0,88,0.00,,,0.01,112.000000,,2013-05-17 15:37:00,
2013-05-17 10:47:00,57.0,53.0,-100.00,East,99,6.0,15.0,88,0.00,,,0.01,112.000000,,2013-05-17 15:47:00,
2013-05-17 10:49:00,56.0,53.0,-100.00,ESE,106,8.0,14.0,89,0.00,,,-99.99,86.000000,,2013-05-17 15:49:00,
2013-05-17 11:13:00,56.0,53.0,-100.00,ESE,106,8.0,14.0,89,0.00,,,-99.99,86.000000,,2013-05-17 16:13:00,
2013-05-17 11:26:00,56.0,53.0,-100.00,ESE,106,8.0,14.0,89,0.00,,,-99.99,86.000000,,2013-05-17 16:26:00,
2013-05-17 11:37:00,56.0,53.0,-100.00,ESE,106,8.0,14.0,89,0.00,,,-99.99,86.000000,,2013-05-17 16:37:00,
2013-05-17 11:49:00,57.0,54.0,-100.00,ESE,110,8.0,13.0,89,0.00,,,0.01,126.000000,,2013-05-17 16:49:00,
2013-05-17 12:19:00,57.0,54.0,-100.00,ESE,110,8.0,13.0,89,0.00,,,0.01,126.000000,,2013-05-17 17:19:00,
2013-05-17 12:30:00,57.0,54.0,-100.00,ESE,110,8.0,13.0,89,0.00,,,0.01,126.000000,,2013-05-17 17:30:00,
2013-05-17 12:40:00,57.0,-99.9,-100.00,ESE,110,8.0,13.0,89,0.00,,,0.01,126.000000,,2013-05-17 17:40:00,
2013-05-17 12:49:00,-999.0,-99.9,-100.00,ESE,105,4.0,14.0,94,0.02,,,0.03,64.000000,,2013-05-17 17:49:00,
2013-05-17 13:20:00,56.0,54.0,-100.00,ESE,105,4.0,14.0,94,0.02,,,0.03,64.000000,,2013-05-17 18:20:00,
2013-05-17 13:30:00,56.0,54.0,-100.00,ESE,105,4.0,14.0,94,0.02,,,0.03,64.000000,,2013-05-17 18:30:00,
2013-05-17 13:40:00,56.0,-99.9,-100.00,ESE,105,4.0,14.0,94,0.02,,,0.03,64.000000,,2013-05-17 18:40:00,
2013-05-17 13:49:00,56.0,56.0,-100.00,East,94,8.0,13.0,100,0.07,,,0.10,58.000000,,2013-05-17 18:49:00,
2013-05-17 14:20:00,56.0,56.0,-100.00,East,94,8.0,13.0,100,0.07,,,0.10,58.000000,,2013-05-17 19:20:00,
2013-05-17 14:30:00,56.0,56.0,-100.00,East,94,8.0,13.0,100,0.07,,,0.10,58.000000,,2013-05-17 19:30:00,
2013-05-17 14:40:00,56.0,56.0,-100.00,East,94,8.0,13.0,100,0.07,,,0.10,58.000000,,2013-05-17 19:40:00,
2013-05-17 14:49:00,55.0,55.0,-100.00,East,93,8.0,18.0,100,0.51,,,0.61,54.000000,,2013-05-17 19:49:00,
2013-05-17 15:20:00,55.0,55.0,-100.00,East,93,8.0,18.0,100,0.51,,,0.61,54.000000,,2013-05-17 20:20:00,
2013-05-17 15:30:00,55.0,55.0,-100.00,East,93,8.0,18.0,100,0.51,,,0.61,54.000000,,2013-05-17 20:30:00,
2013-05-17 15:40:00,55.0,55.0,-100.00,East,93,8.0,18.0,100,0.51,,,0.61,54.000000,,2013-05-17 20:40:00,
2013-05-17 15:49:00,56.0,56.0,-100.00,ENE,76,8.0,18.0,100,0.23,,,0.84,118.000000,,2013-05-17 20:49:00,
2013-05-17 16:17:00,56.0,56.0,-100.00,ENE,76,8.0,18.0,100,0.23,,,0.84,118.000000,,2013-05-17 21:17:00,
2013-05-17 16:26:00,56.0,56.0,-100.00,ENE,76,8.0,18.0,100,0.23,,,0.84,118.000000,,2013-05-17 21:26:00,
2013-05-17 16:39:00,56.0,56.0,-100.00,ENE,76,8.0,18.0,100,0.23,,,0.84,118.000000,,2013-05-17 21:39:00,
2013-05-17 17:17:00,57.0,57.0,-100.00,East,85,10.0,15.0,100,0.00,,,-99.99,244.000000,,2013-05-17 22:17:00,
2013-05-17 17:28:00,57.0,57.0,-100.00,East,85,10.0,15.0,100,0.00,,,-99.99,244.000000,,2013-05-17 22:28:00,
2013-05-17 17:38:00,57.0,57.0,-100.00,East,85,10.0,15.0,100,0.00,,,-99.99,244.000000,,2013-05-17 22:38:00,
2013-05-17 17:47:00,57.0,57.0,-100.00,East,85,10.0,15.0,100,0.00,,,-99.99,244.000000,,2013-05-17 22:47:00,
2013-05-17 18:13:00,58.0,58.0,-100.00,ESE,105,9.0,18.0,100,0.00,,,0.84,142.000000,,2013-05-17 23:13:00,
2013-05-17 18:23:00,58.0,58.0,-100.00,ESE,105,9.0,18.0,100,0.00,,,0.84,142.000000,,2013-05-17 23:23:00,
2013-05-17 18:37:00,58.0,58.0,-100.00,ESE,105,9.0,18.0,100,0.00,,,0.84,142.000000,,2013-05-17 23:37:00,
2013-05-17 18:47:00,58.0,58.0,-100.00,ESE,105,9.0,18.0,100,0.00,,,0.84,142.000000,,2013-05-17 23:47:00,
2013-05-17 19:14:00,57.0,57.0,-100.00,East,84,9.0,14.0,100,0.00,,,0.84,62.000000,,2013-05-18 00:14:00,
2013-05-17 19:22:00,57.0,57.0,-100.00,East,84,9.0,14.0,100,0.00,,,0.84,62.000000,,2013-05-18 00:22:00,
2013-05-17 19:33:00,57.0,57.0,-100.00,East,84,9.0,14.0,100,0.00,,,0.84,62.000000,,2013-05-18 00:33:00,
2013-05-17 19:44:00,57.0,57.0,-100.00,East,84,9.0,14.0,100,0.00,,,0.84,62.000000,,2013-05-18 00:44:00,
2013-05-17 20:13:00,57.0,57.0,-100.00,East,83,8.0,13.0,100,0.00,,,0.84,29.000000,,2013-05-18 01:13:00,
2013-05-17 20:24:00,57.0,57.0,-100.00,East,83,8.0,13.0,100,0.00,,,0.84,29.000000,,2013-05-18 01:24:00,
2013-05-17 20:32:00,57.0,57.0,-100.00,East,83,8.0,13.0,100,0.00,,,0.84,29.000000,,2013-05-18 01:32:00,
2013-05-17 20:43:00,57.0,57.0,-100.00,East,83,8.0,13.0,100,0.00,,,0.84,29.000000,,2013-05-18 01:43:00,
2013-05-17 21:12:00,57.0,57.0,-100.00,East,87,8.0,12.0,100,0.00,,,0.84,8.000000,,2013-05-18 02:12:00,
2013-05-17 21:22:00,57.0,57.0,-100.00,East,87,8.0,12.0,100,0.00,,,0.84,8.000000,,2013-05-18 02:22:00,
2013-05-17 21:31:00,57.0,57.0,-100.00,East,87,8.0,12.0,100,0.00,,,0.84,8.000000,,2013-05-18 02:31:00,
2013-05-17 21:42:00,57.0,57.0,-100.00,East,87,8.0,12.0,100,0.00,,,0.84,8.000000,,2013-05-18 02:42:00,
2013-05-17 22:12:00,57.0,57.0,-100.00,East,91,9.0,14.0,100,0.00,,,0.84,1.000000,,2013-05-18 03:12:00,
2013-05-17 22:22:00,57.0,57.0,-100.00,East,91,9.0,14.0,100,0.00,,,0.84,1.000000,,2013-05-18 03:22:00,
2013-05-17 22:33:00,57.0,57.0,-100.00,East,91,9.0,14.0,100,0.00,,,0.84,1.000000,,2013-05-18 03:33:00,
2013-05-17 22:43:00,57.0,57.0,-100.00,East,91,9.0,14.0,100,0.00,,,0.84,1.000000,,2013-05-18 03:43:00,
2013-05-17 23:12:00,58.0,58.0,-100.00,East,100,8.0,13.0,100,0.00,,,0.84,1.000000,,2013-05-18 04:12:00,
2013-05-17 23:23:00,58.0,58.0,-100.00,East,100,8.0,13.0,100,0.00,,,0.84,1.000000,,2013-05-18 04:23:00,
2013-05-17 23:33:00,58.0,58.0,-100.00,East,100,8.0,13.0,100,0.00,,,0.84,1.000000,,2013-05-18 04:33:00,
2013-05-17 23:42:00,58.0,58.0,-100.00,East,100,8.0,13.0,100,0.00,,,0.84,1.000000,,2013-05-18 04:42:00,